• Join FlightAware (Why Join?)
  • Login
  • US Flag 
10:28PM EST


 

Airport Tracker/Info


-or-


 

Live Flight TrackerFlight Track Log ✈ N3H ✈ 28-Dec-2013 ✈ KAPF - KFXE

Flight Track Log - Related Links

Times and Time Zones

All times are in EST time to prevent confusion due to time zone crossing. See the N3H flight status page for this flight to view local times or setup timezone preferences in your user account.

Time Position Orientation Groundspeed Altitude Reporting Facility
EST Latitude Longitude Course Direction KTS MPH feet Rate Location/Type
01:02AM 26.1894 -81.5333 90° East 288 331 9,000  Level Miami Center
01:02AM 26.1900 -81.4453 90° East 288 331 7,800 -1,020 Descending Miami Center
01:03AM 26.1906 -81.3619 90° East 288 331 7,000 -420 Descending Miami Center
01:04AM 26.1892 -81.2764 91° East 281 323 7,000  Level Miami Center
01:05AM 26.1847 -81.2136 94° East 268 308 7,000  Level Miami Center
01:06AM 26.1853 -81.1953 88° East 271 312 7,000 -120 Level Miami Center
01:06AM 26.1825 -81.1419 93° East 262 302 6,900  Descending Miami Center
01:06AM 26.1856 -81.1142 83° East 261 300 7,000 60 Climbing Miami Center
01:07AM 26.1831 -81.0539 93° East 265 305 7,000  Level Miami Center
01:07AM 26.1839 -81.0261 88° East 261 300 7,000 -240 Level Miami Center
01:08AM 26.1833 -80.9706 91° East 270 311 6,800 -540 Descending Miami Center
01:09AM 26.1881 -80.9475 77° East 261 300 6,500 -1,140 Descending Miami Center
01:09AM 26.1836 -80.8872 95° East 270 311 5,700 -1,080 Descending Miami Center
01:09AM 26.1864 -80.8667 81° East 261 300 5,500 -1,020 Descending Miami Center
01:10AM 26.1839 -80.7994 92° East 263 303 4,600 -1,020 Descending Miami Center
01:11AM 26.1864 -80.7856 79° East 261 300 4,500 -1,020 Descending Miami Center
01:11AM 26.1836 -80.7275 93° East 254 292 3,700 -1,020 Descending Miami Center
01:11AM 26.1883 -80.7092 74° East 255 293 3,500 -1,080 Descending Miami Center
01:12AM 26.1839 -80.6467 95° East 248 285 2,600 -1,080 Descending Miami Center
01:13AM 26.1883 -80.6328 70° East 250 288 2,400 -420 Descending Miami Center
01:13AM 26.1836 -80.5678 95° East 237 273 2,200 -360 Descending Miami Center
01:14AM 26.1881 -80.5589 61° Northeast 245 282 2,100  Descending Miami Center
01:14AM 26.1772 -80.4936 100° East 233 268 2,200  Climbing Miami Center
01:14AM 26.1814 -80.4892 44° Northeast 235 270 2,100  Descending Miami Center
01:15AM 26.1706 -80.4264 101° East 225 259 2,200  Climbing Miami Center
01:16AM 26.1764 -80.3617 84° East 202 232 2,200 -60 Level Miami Center
01:17AM 26.1839 -80.3064 81° East 158 182 2,100 -420 Descending Miami Center
01:18AM 26.1869 -80.2647 85° East 145 167 1,400 -660 Descending Miami Center
01:19AM 26.1919 -80.2256 82° East 116 133 800 -600 Descending Miami Center
01:21AM 26.1833 -80.1667 90° East  Level FlightAware Approximate
01:28AM 26.1973 -80.1707 90° East  Level Estimated
01:29AM 26.1973 -80.1707 90° East  Level Estimated